Terminal Aerodrome Forecast
Issued by NWS

Home | Current Version | Previous Version | Text Only | Print | Product List | Glossary On
Versions: 1 2 3 4 5 6 7 8 9 10 11 12 13 14 15 16 17 18 19 20 21 22 23 24 25 26 27 28 29 30 31 32 33 34 35 36 37 38 39 40 41 42
499
FTUS44 KLZK 231336 AAA
TAFADF
TAF AMD
KADF 231336Z 2314/2412 04007KT P6SM BKN025 BKN050 WS020/22035KT
      TEMPO 2314/2316 SCT025
     FM231600 14009G15KT P6SM BKN050 BKN250
     FM240100 13006KT P6SM SCT050 BKN250
     FM241000 16008G15KT P6SM VCSH BKN050 OVC150=

USA.gov is the U.S. government's official web portal to all federal, state and local government web resources and services.